Time,TemperatureF,DewpointF,PressureIn,WindDirection,WindDirectionDegrees,WindSpeedMPH,WindSpeedGustMPH,Humidity,HourlyPrecipIn,Conditions,Clouds,dailyrainin,SoftwareType,DateUTC
2013-07-30 00:02:00,66.0,60.0,29.95,North,0,0.0,0.0,82,44.14,,,-99.99,,2013-07-30 07:02:00,
2013-07-30 00:22:00,65.0,59.0,29.96,North,0,0.0,0.0,82,44.14,,,-99.99,,2013-07-30 07:22:00,
2013-07-30 00:33:00,64.0,59.0,29.96,North,0,0.0,0.0,84,44.14,,,-99.99,,2013-07-30 07:33:00,
2013-07-30 00:43:00,64.0,59.0,29.96,North,0,0.0,0.0,84,44.14,,,-99.99,,2013-07-30 07:43:00,
2013-07-30 00:53:00,64.0,59.0,29.97,North,0,0.0,0.0,84,44.14,,,-99.99,,2013-07-30 07:53:00,
2013-07-30 01:02:00,64.0,59.0,29.97,North,0,0.0,0.0,84,44.14,,,-99.99,,2013-07-30 08:02:00,
2013-07-30 01:12:00,63.0,59.0,29.98,North,0,0.0,0.0,86,44.14,,,-99.99,,2013-07-30 08:12:00,
2013-07-30 01:32:00,63.0,59.0,29.98,North,0,0.0,0.0,86,44.14,,,-99.99,,2013-07-30 08:32:00,
2013-07-30 01:52:00,63.0,59.0,29.98,North,0,0.0,0.0,86,44.14,,,-99.99,,2013-07-30 08:52:00,
2013-07-30 02:02:00,62.0,58.0,29.98,North,0,0.0,0.0,86,44.14,,,-99.99,,2013-07-30 09:02:00,
2013-07-30 02:12:00,62.0,58.0,29.98,North,0,0.0,0.0,87,44.14,,,-99.99,,2013-07-30 09:12:00,
2013-07-30 02:32:00,62.0,58.0,29.99,North,0,0.0,0.0,87,44.14,,,-99.99,,2013-07-30 09:32:00,
2013-07-30 02:43:00,62.0,58.0,30.00,North,0,0.0,0.0,87,44.14,,,-99.99,,2013-07-30 09:43:00,
2013-07-30 02:53:00,61.0,57.0,30.00,North,0,0.0,0.0,87,44.14,,,-99.99,,2013-07-30 09:53:00,
2013-07-30 03:01:00,60.0,57.0,30.01,North,0,0.0,0.0,89,44.14,,,-99.99,,2013-07-30 10:01:00,
2013-07-30 03:12:00,61.0,58.0,30.01,North,0,0.0,0.0,89,44.14,,,-99.99,,2013-07-30 10:12:00,
2013-07-30 03:32:00,61.0,57.0,30.00,North,0,0.0,0.0,88,44.14,,,-99.99,,2013-07-30 10:32:00,
2013-07-30 03:43:00,60.0,57.0,30.01,North,0,0.0,0.0,89,44.14,,,-99.99,,2013-07-30 10:43:00,
2013-07-30 03:52:00,60.0,57.0,30.01,North,0,0.0,0.0,89,44.14,,,-99.99,,2013-07-30 10:52:00,
2013-07-30 04:02:00,61.0,58.0,30.01,North,0,0.0,0.0,89,44.14,,,-99.99,,2013-07-30 11:02:00,
2013-07-30 04:11:00,60.0,57.0,30.02,North,0,0.0,0.0,89,44.14,,,-99.99,,2013-07-30 11:11:00,
2013-07-30 04:33:00,60.0,57.0,30.02,North,0,0.0,0.0,89,44.14,,,-99.99,,2013-07-30 11:33:00,
2013-07-30 04:43:00,60.0,57.0,30.02,North,0,0.0,0.0,89,44.14,,,-99.99,,2013-07-30 11:43:00,
2013-07-30 04:53:00,60.0,57.0,30.03,North,0,0.0,0.0,90,44.14,,,-99.99,,2013-07-30 11:53:00,
2013-07-30 05:11:00,60.0,57.0,30.03,North,0,0.0,0.0,90,44.14,,,-99.99,,2013-07-30 12:11:00,
2013-07-30 05:33:00,60.0,57.0,30.04,North,0,0.0,0.0,91,44.14,,,-99.99,,2013-07-30 12:33:00,
2013-07-30 05:42:00,60.0,58.0,30.04,North,0,0.0,0.0,92,44.14,,,-99.99,,2013-07-30 12:42:00,
2013-07-30 05:53:00,60.0,58.0,30.04,North,0,0.0,0.0,92,44.14,,,-99.99,,2013-07-30 12:53:00,
2013-07-30 06:52:00,60.0,58.0,30.06,North,0,0.0,0.0,92,44.14,,,-99.99,,2013-07-30 13:52:00,
2013-07-30 07:32:00,60.0,57.0,30.07,North,0,0.0,0.0,91,44.14,,,-99.99,,2013-07-30 14:32:00,
2013-07-30 07:53:00,61.0,58.0,30.08,North,0,0.0,0.0,91,44.14,,,-99.99,,2013-07-30 14:53:00,
2013-07-30 08:01:00,61.0,58.0,30.08,North,0,0.0,0.0,91,44.14,,,-99.99,,2013-07-30 15:01:00,
2013-07-30 08:33:00,62.0,59.0,30.08,North,0,0.0,0.0,91,44.14,,,-99.99,,2013-07-30 15:33:00,
2013-07-30 08:43:00,62.0,59.0,30.08,North,0,0.0,0.0,90,44.14,,,-99.99,,2013-07-30 15:43:00,
2013-07-30 08:52:00,62.0,59.0,30.08,North,0,0.0,0.0,90,44.14,,,-99.99,,2013-07-30 15:52:00,
2013-07-30 09:22:00,62.0,59.0,30.08,North,0,0.0,0.0,90,44.14,,,-99.99,,2013-07-30 16:22:00,
2013-07-30 09:33:00,63.0,59.0,30.08,North,0,0.0,0.0,87,44.14,,,-99.99,,2013-07-30 16:33:00,
2013-07-30 09:43:00,64.0,59.0,30.07,North,0,0.0,0.0,85,44.14,,,-99.99,,2013-07-30 16:43:00,
2013-07-30 09:52:00,64.0,59.0,30.07,North,0,0.0,0.0,85,44.14,,,-99.99,,2013-07-30 16:52:00,
2013-07-30 10:32:00,67.0,60.0,30.06,NW,311,1.0,5.0,78,44.14,,,-99.99,,2013-07-30 17:32:00,
2013-07-30 10:43:00,68.0,61.0,30.06,NW,322,1.0,4.0,77,44.14,,,-99.99,,2013-07-30 17:43:00,
2013-07-30 10:53:00,68.0,61.0,30.06,NW,322,1.0,4.0,77,44.14,,,-99.99,,2013-07-30 17:53:00,
2013-07-30 11:12:00,70.0,61.0,30.05,WSW,249,2.0,5.0,73,44.14,,,-99.99,,2013-07-30 18:12:00,
2013-07-30 12:01:00,74.0,59.0,30.04,SSE,155,4.0,10.0,59,44.14,,,-99.99,,2013-07-30 19:01:00,
2013-07-30 12:22:00,76.0,61.0,30.04,SSW,211,3.0,10.0,60,44.14,,,-99.99,,2013-07-30 19:22:00,
2013-07-30 12:33:00,76.0,61.0,30.04,SSW,211,3.0,10.0,60,44.14,,,-99.99,,2013-07-30 19:33:00,
2013-07-30 12:43:00,76.0,59.0,30.03,SSE,158,4.0,12.0,56,44.14,,,-99.99,,2013-07-30 19:43:00,
2013-07-30 12:52:00,76.0,60.0,30.03,South,191,4.0,9.0,57,44.14,,,-99.99,,2013-07-30 19:52:00,
2013-07-30 13:01:00,76.0,60.0,30.03,South,191,4.0,9.0,57,44.14,,,-99.99,,2013-07-30 20:01:00,
2013-07-30 13:22:00,79.0,60.0,30.02,SE,127,5.0,10.0,53,44.14,,,-99.99,,2013-07-30 20:22:00,
2013-07-30 13:32:00,79.0,60.0,30.02,SE,127,5.0,10.0,53,44.14,,,-99.99,,2013-07-30 20:32:00,
2013-07-30 13:43:00,79.0,60.0,30.02,SSE,150,4.0,9.0,52,44.14,,,-99.99,,2013-07-30 20:43:00,
2013-07-30 13:52:00,79.0,61.0,30.02,West,267,4.0,12.0,54,44.14,,,-99.99,,2013-07-30 20:52:00,
2013-07-30 14:02:00,79.0,61.0,30.01,SSW,198,4.0,14.0,55,44.14,,,-99.99,,2013-07-30 21:02:00,
2013-07-30 14:52:00,80.0,61.0,30.00,SW,215,6.0,12.0,52,44.14,,,-99.99,,2013-07-30 21:52:00,
2013-07-30 15:01:00,80.0,61.0,30.00,SE,131,6.0,16.0,52,44.14,,,-99.99,,2013-07-30 22:01:00,
2013-07-30 15:32:00,80.0,60.0,30.00,SSE,150,6.0,19.0,50,44.14,,,-99.99,,2013-07-30 22:32:00,
2013-07-30 15:43:00,80.0,60.0,30.00,SSE,158,7.0,21.0,50,44.14,,,-99.99,,2013-07-30 22:43:00,
2013-07-30 15:52:00,80.0,60.0,30.00,SSE,150,8.0,17.0,51,44.14,,,-99.99,,2013-07-30 22:52:00,
2013-07-30 16:02:00,80.0,60.0,30.00,SSE,150,8.0,17.0,51,44.14,,,-99.99,,2013-07-30 23:02:00,
2013-07-30 16:11:00,80.0,60.0,30.00,SSE,150,8.0,17.0,51,44.14,,,-99.99,,2013-07-30 23:11:00,
2013-07-30 16:22:00,80.0,60.0,30.00,SSE,150,8.0,17.0,51,44.14,,,-99.99,,2013-07-30 23:22:00,
2013-07-30 16:32:00,81.0,61.0,29.99,South,181,4.0,11.0,50,44.14,,,-99.99,,2013-07-30 23:32:00,
2013-07-30 16:42:00,82.0,61.0,29.99,South,181,5.0,13.0,50,44.14,,,-99.99,,2013-07-30 23:42:00,
2013-07-30 16:53:00,82.0,61.0,29.99,South,181,5.0,13.0,50,44.14,,,-99.99,,2013-07-30 23:53:00,
2013-07-30 17:02:00,82.0,61.0,29.99,South,181,5.0,13.0,50,44.14,,,-99.99,,2013-07-31 00:02:00,
2013-07-30 17:12:00,82.0,61.0,29.99,South,181,5.0,13.0,50,44.14,,,-99.99,,2013-07-31 00:12:00,
2013-07-30 17:21:00,81.0,61.0,29.99,SSW,205,5.0,15.0,50,44.14,,,-99.99,,2013-07-31 00:21:00,
2013-07-30 17:32:00,81.0,61.0,29.99,SSW,205,5.0,15.0,50,44.14,,,-99.99,,2013-07-31 00:32:00,
2013-07-30 17:43:00,81.0,61.0,29.99,SW,231,6.0,14.0,51,44.14,,,-99.99,,2013-07-31 00:43:00,
2013-07-30 17:53:00,81.0,61.0,29.99,SW,231,6.0,14.0,51,44.14,,,-99.99,,2013-07-31 00:53:00,
2013-07-30 18:01:00,81.0,61.0,29.99,SW,231,6.0,14.0,51,44.14,,,-99.99,,2013-07-31 01:01:00,
2013-07-30 18:21:00,80.0,61.0,29.99,SW,222,5.0,11.0,52,44.14,,,-99.99,,2013-07-31 01:21:00,
2013-07-30 18:32:00,80.0,61.0,29.99,SSW,207,5.0,13.0,53,44.14,,,-99.99,,2013-07-31 01:32:00,
2013-07-30 18:42:00,80.0,61.0,29.99,South,190,5.0,15.0,53,44.14,,,-99.99,,2013-07-31 01:42:00,
2013-07-30 18:52:00,80.0,62.0,29.99,SW,214,3.0,10.0,54,44.14,,,-99.99,,2013-07-31 01:52:00,
2013-07-30 19:02:00,80.0,62.0,29.99,SW,214,3.0,10.0,54,44.14,,,-99.99,,2013-07-31 02:02:00,
2013-07-30 19:11:00,79.0,61.0,29.99,SE,128,5.0,13.0,55,44.14,,,-99.99,,2013-07-31 02:11:00,
2013-07-30 19:42:00,79.0,61.0,29.99,SSW,203,5.0,12.0,55,44.14,,,-99.99,,2013-07-31 02:42:00,
2013-07-30 19:52:00,79.0,61.0,29.99,SSW,203,5.0,12.0,55,44.14,,,-99.99,,2013-07-31 02:52:00,
2013-07-30 20:01:00,79.0,61.0,29.99,SSW,203,5.0,12.0,55,44.14,,,-99.99,,2013-07-31 03:01:00,
2013-07-30 20:11:00,79.0,61.0,29.99,SSW,203,5.0,12.0,55,44.14,,,-99.99,,2013-07-31 03:11:00,
2013-07-30 20:22:00,76.0,62.0,30.01,South,187,4.0,10.0,61,44.14,,,-99.99,,2013-07-31 03:22:00,
2013-07-30 20:52:00,76.0,62.0,30.02,SSE,150,4.0,8.0,63,44.14,,,-99.99,,2013-07-31 03:52:00,
2013-07-30 21:01:00,75.0,62.0,30.02,ESE,121,3.0,7.0,65,44.14,,,-99.99,,2013-07-31 04:01:00,
2013-07-30 21:12:00,75.0,62.0,30.02,ESE,121,3.0,7.0,65,44.14,,,-99.99,,2013-07-31 04:12:00,
2013-07-30 21:22:00,74.0,62.0,30.02,SE,142,2.0,8.0,66,44.14,,,-99.99,,2013-07-31 04:22:00,
2013-07-30 21:32:00,74.0,62.0,30.02,SE,142,2.0,8.0,66,44.14,,,-99.99,,2013-07-31 04:32:00,
2013-07-30 21:42:00,74.0,62.0,30.02,SE,142,2.0,8.0,66,44.14,,,-99.99,,2013-07-31 04:42:00,
2013-07-30 21:52:00,74.0,62.0,30.02,SE,142,2.0,8.0,66,44.14,,,-99.99,,2013-07-31 04:52:00,
2013-07-30 22:11:00,72.0,62.0,30.04,North,0,0.0,0.0,71,44.14,,,-99.99,,2013-07-31 05:11:00,
2013-07-30 22:22:00,72.0,63.0,30.04,North,0,0.0,0.0,73,44.14,,,-99.99,,2013-07-31 05:22:00,
2013-07-30 22:32:00,72.0,63.0,30.04,North,0,0.0,0.0,73,44.14,,,-99.99,,2013-07-31 05:32:00,
2013-07-30 22:42:00,70.0,62.0,30.04,North,0,0.0,0.0,75,44.14,,,-99.99,,2013-07-31 05:42:00,
2013-07-30 22:51:00,70.0,62.0,30.04,North,0,0.0,0.0,76,44.14,,,-99.99,,2013-07-31 05:51:00,
2013-07-30 23:01:00,69.0,61.0,30.05,North,0,0.0,0.0,77,44.14,,,-99.99,,2013-07-31 06:01:00,
2013-07-30 23:12:00,69.0,61.0,30.05,North,0,0.0,0.0,77,44.14,,,-99.99,,2013-07-31 06:12:00,
2013-07-30 23:22:00,68.0,61.0,30.05,North,0,0.0,0.0,79,44.14,,,-99.99,,2013-07-31 06:22:00,
2013-07-30 23:32:00,68.0,61.0,30.05,North,0,0.0,0.0,79,44.14,,,-99.99,,2013-07-31 06:32:00,
2013-07-30 23:42:00,68.0,62.0,30.06,North,0,0.0,0.0,80,44.14,,,-99.99,,2013-07-31 06:42:00,
2013-07-30 23:52:00,68.0,62.0,30.06,North,0,0.0,0.0,80,44.14,,,-99.99,,2013-07-31 06:52:00,